sensor_id;sensor_type;location;lat;lon;timestamp;temperature;humidity
13049;DHT22;6591;51.446;5.404;2023-11-21T00:00:35;8.90;99.90
13049;DHT22;6591;51.446;5.404;2023-11-21T00:03:02;10.00;99.90
13049;DHT22;6591;51.446;5.404;2023-11-21T00:05:31;9.00;99.90
13049;DHT22;6591;51.446;5.404;2023-11-21T00:07:58;9.00;99.90
13049;DHT22;6591;51.446;5.404;2023-11-21T00:10:25;10.10;99.90
13049;DHT22;6591;51.446;5.404;2023-11-21T00:12:53;9.00;99.90
13049;DHT22;6591;51.446;5.404;2023-11-21T00:15:22;9.00;99.90
13049;DHT22;6591;51.446;5.404;2023-11-21T00:17:49;10.90;99.90
13049;DHT22;6591;51.446;5.404;2023-11-21T00:20:16;9.00;99.90
13049;DHT22;6591;51.446;5.404;2023-11-21T00:22:43;8.90;99.90
13049;DHT22;6591;51.446;5.404;2023-11-21T00:25:11;10.30;99.90
13049;DHT22;6591;51.446;5.404;2023-11-21T00:27:41;8.90;99.90
13049;DHT22;6591;51.446;5.404;2023-11-21T00:30:09;8.80;99.90
13049;DHT22;6591;51.446;5.404;2023-11-21T00:32:37;8.80;99.90
13049;DHT22;6591;51.446;5.404;2023-11-21T00:35:05;10.10;99.90
13049;DHT22;6591;51.446;5.404;2023-11-21T00:37:32;8.70;99.90
13049;DHT22;6591;51.446;5.404;2023-11-21T00:40:00;8.60;99.90
13049;DHT22;6591;51.446;5.404;2023-11-21T00:42:33;9.80;99.90
13049;DHT22;6591;51.446;5.404;2023-11-21T00:45:00;10.60;99.90
13049;DHT22;6591;51.446;5.404;2023-11-21T00:47:27;8.40;99.90
13049;DHT22;6591;51.446;5.404;2023-11-21T00:49:55;8.40;99.90
13049;DHT22;6591;51.446;5.404;2023-11-21T00:52:22;8.30;99.90
13049;DHT22;6591;51.446;5.404;2023-11-21T00:54:50;9.50;99.90
13049;DHT22;6591;51.446;5.404;2023-11-21T00:57:17;9.60;99.90
13049;DHT22;6591;51.446;5.404;2023-11-21T00:59:44;8.10;99.90
13049;DHT22;6591;51.446;5.404;2023-11-21T01:02:11;8.90;99.90
13049;DHT22;6591;51.446;5.404;2023-11-21T01:04:38;7.90;99.90
13049;DHT22;6591;51.446;5.404;2023-11-21T01:07:05;7.80;99.90
13049;DHT22;6591;51.446;5.404;2023-11-21T01:09:32;7.80;99.90
13049;DHT22;6591;51.446;5.404;2023-11-21T01:11:59;7.70;99.90
13049;DHT22;6591;51.446;5.404;2023-11-21T01:14:27;7.60;99.90
13049;DHT22;6591;51.446;5.404;2023-11-21T01:16:54;7.50;99.90
13049;DHT22;6591;51.446;5.404;2023-11-21T01:19:22;7.40;99.90
13049;DHT22;6591;51.446;5.404;2023-11-21T01:21:49;7.30;99.90
13049;DHT22;6591;51.446;5.404;2023-11-21T01:24:16;7.30;99.90
13049;DHT22;6591;51.446;5.404;2023-11-21T01:26:43;7.20;99.90
13049;DHT22;6591;51.446;5.404;2023-11-21T01:29:13;7.10;99.90
13049;DHT22;6591;51.446;5.404;2023-11-21T01:31:41;7.10;99.90
13049;DHT22;6591;51.446;5.404;2023-11-21T01:34:08;7.10;99.90
13049;DHT22;6591;51.446;5.404;2023-11-21T01:36:36;7.00;99.90
13049;DHT22;6591;51.446;5.404;2023-11-21T01:39:03;8.10;99.90
13049;DHT22;6591;51.446;5.404;2023-11-21T01:41:35;7.00;99.90
13049;DHT22;6591;51.446;5.404;2023-11-21T01:44:02;7.00;99.90
13049;DHT22;6591;51.446;5.404;2023-11-21T01:46:30;7.00;99.90
13049;DHT22;6591;51.446;5.404;2023-11-21T01:48:57;8.90;99.90
13049;DHT22;6591;51.446;5.404;2023-11-21T01:51:24;8.20;99.90
13049;DHT22;6591;51.446;5.404;2023-11-21T01:53:54;7.10;99.90
13049;DHT22;6591;51.446;5.404;2023-11-21T01:56:22;7.20;99.90
13049;DHT22;6591;51.446;5.404;2023-11-21T01:58:50;7.20;99.90
13049;DHT22;6591;51.446;5.404;2023-11-21T02:01:17;8.40;99.90
13049;DHT22;6591;51.446;5.404;2023-11-21T02:03:45;7.40;99.90
13049;DHT22;6591;51.446;5.404;2023-11-21T02:06:13;7.50;99.90
13049;DHT22;6591;51.446;5.404;2023-11-21T02:08:40;9.20;99.90
13049;DHT22;6591;51.446;5.404;2023-11-21T02:11:11;7.60;99.90
13049;DHT22;6591;51.446;5.404;2023-11-21T02:13:41;7.70;99.90
13049;DHT22;6591;51.446;5.404;2023-11-21T02:16:12;9.60;99.90
13049;DHT22;6591;51.446;5.404;2023-11-21T02:18:40;7.90;99.90
13049;DHT22;6591;51.446;5.404;2023-11-21T02:21:08;8.00;99.90
13049;DHT22;6591;51.446;5.404;2023-11-21T02:23:36;8.10;99.90
13049;DHT22;6591;51.446;5.404;2023-11-21T02:26:05;8.10;99.90
13049;DHT22;6591;51.446;5.404;2023-11-21T02:28:32;8.10;99.90
13049;DHT22;6591;51.446;5.404;2023-11-21T02:31:00;8.20;99.90
13049;DHT22;6591;51.446;5.404;2023-11-21T02:33:27;8.20;99.90
13049;DHT22;6591;51.446;5.404;2023-11-21T02:35:54;8.50;99.90
13049;DHT22;6591;51.446;5.404;2023-11-21T02:38:22;9.40;99.90
13049;DHT22;6591;51.446;5.404;2023-11-21T02:40:49;9.10;99.90
13049;DHT22;6591;51.446;5.404;2023-11-21T02:43:16;8.30;99.90
13049;DHT22;6591;51.446;5.404;2023-11-21T02:45:44;8.40;99.90
13049;DHT22;6591;51.446;5.404;2023-11-21T02:48:12;9.90;99.90
13049;DHT22;6591;51.446;5.404;2023-11-21T02:50:39;8.40;99.90
13049;DHT22;6591;51.446;5.404;2023-11-21T02:53:06;9.10;99.90
13049;DHT22;6591;51.446;5.404;2023-11-21T02:55:33;9.40;99.90
13049;DHT22;6591;51.446;5.404;2023-11-21T02:58:03;10.20;99.90
13049;DHT22;6591;51.446;5.404;2023-11-21T03:00:30;8.50;99.90
13049;DHT22;6591;51.446;5.404;2023-11-21T03:02:59;9.30;99.90
13049;DHT22;6591;51.446;5.404;2023-11-21T03:05:27;8.60;99.90
13049;DHT22;6591;51.446;5.404;2023-11-21T03:07:56;9.10;99.90
13049;DHT22;6591;51.446;5.404;2023-11-21T03:10:25;10.30;99.90
13049;DHT22;6591;51.446;5.404;2023-11-21T03:12:52;8.60;99.90
13049;DHT22;6591;51.446;5.404;2023-11-21T03:15:19;8.60;99.90
13049;DHT22;6591;51.446;5.404;2023-11-21T03:17:46;8.80;99.90
13049;DHT22;6591;51.446;5.404;2023-11-21T03:20:16;8.60;99.90
13049;DHT22;6591;51.446;5.404;2023-11-21T03:22:43;8.60;99.90
13049;DHT22;6591;51.446;5.404;2023-11-21T03:25:10;10.50;99.90
13049;DHT22;6591;51.446;5.404;2023-11-21T03:27:38;10.60;99.90
13049;DHT22;6591;51.446;5.404;2023-11-21T03:30:08;10.60;99.90
13049;DHT22;6591;51.446;5.404;2023-11-21T03:32:36;8.70;99.90
13049;DHT22;6591;51.446;5.404;2023-11-21T03:35:04;8.70;99.90
13049;DHT22;6591;51.446;5.404;2023-11-21T03:37:33;8.70;99.90
13049;DHT22;6591;51.446;5.404;2023-11-21T03:40:00;9.40;99.90
13049;DHT22;6591;51.446;5.404;2023-11-21T03:42:28;8.70;99.90
13049;DHT22;6591;51.446;5.404;2023-11-21T03:44:57;8.60;99.90
13049;DHT22;6591;51.446;5.404;2023-11-21T03:47:25;9.80;99.90
13049;DHT22;6591;51.446;5.404;2023-11-21T03:49:53;10.30;99.90
13049;DHT22;6591;51.446;5.404;2023-11-21T03:52:20;8.60;99.90
13049;DHT22;6591;51.446;5.404;2023-11-21T03:54:47;9.60;99.90
13049;DHT22;6591;51.446;5.404;2023-11-21T03:57:14;8.60;99.90
13049;DHT22;6591;51.446;5.404;2023-11-21T03:59:42;8.60;99.90
13049;DHT22;6591;51.446;5.404;2023-11-21T04:02:10;9.80;99.90
13049;DHT22;6591;51.446;5.404;2023-11-21T04:04:37;9.20;99.90
13049;DHT22;6591;51.446;5.404;2023-11-21T04:07:04;8.50;99.90
13049;DHT22;6591;51.446;5.404;2023-11-21T04:09:32;10.50;99.90
13049;DHT22;6591;51.446;5.404;2023-11-21T04:11:59;8.50;99.90
13049;DHT22;6591;51.446;5.404;2023-11-21T04:14:27;8.50;99.90
13049;DHT22;6591;51.446;5.404;2023-11-21T04:16:54;8.50;99.90
13049;DHT22;6591;51.446;5.404;2023-11-21T04:19:21;8.50;99.90
13049;DHT22;6591;51.446;5.404;2023-11-21T04:21:49;8.60;99.90
13049;DHT22;6591;51.446;5.404;2023-11-21T04:24:16;8.40;99.90
13049;DHT22;6591;51.446;5.404;2023-11-21T04:26:46;8.40;99.90
13049;DHT22;6591;51.446;5.404;2023-11-21T04:29:14;8.50;99.90
13049;DHT22;6591;51.446;5.404;2023-11-21T04:31:41;8.50;99.90
13049;DHT22;6591;51.446;5.404;2023-11-21T04:34:08;8.50;99.90
13049;DHT22;6591;51.446;5.404;2023-11-21T04:36:35;8.50;99.90
13049;DHT22;6591;51.446;5.404;2023-11-21T04:39:03;10.10;99.90
13049;DHT22;6591;51.446;5.404;2023-11-21T04:41:30;8.50;99.90
13049;DHT22;6591;51.446;5.404;2023-11-21T04:43:58;9.60;99.90
13049;DHT22;6591;51.446;5.404;2023-11-21T04:46:27;10.40;99.90
13049;DHT22;6591;51.446;5.404;2023-11-21T04:48:55;8.60;99.90
13049;DHT22;6591;51.446;5.404;2023-11-21T04:51:22;8.60;99.90
13049;DHT22;6591;51.446;5.404;2023-11-21T04:53:49;9.70;99.90
13049;DHT22;6591;51.446;5.404;2023-11-21T04:56:18;9.30;99.90
13049;DHT22;6591;51.446;5.404;2023-11-21T04:58:45;10.30;99.90
13049;DHT22;6591;51.446;5.404;2023-11-21T05:01:13;8.60;99.90
13049;DHT22;6591;51.446;5.404;2023-11-21T05:03:41;10.60;99.90
13049;DHT22;6591;51.446;5.404;2023-11-21T05:06:11;8.60;99.90
13049;DHT22;6591;51.446;5.404;2023-11-21T05:08:38;8.60;99.90
13049;DHT22;6591;51.446;5.404;2023-11-21T05:11:05;10.00;99.90
13049;DHT22;6591;51.446;5.404;2023-11-21T05:13:34;8.60;99.90
13049;DHT22;6591;51.446;5.404;2023-11-21T05:16:01;8.70;99.90
13049;DHT22;6591;51.446;5.404;2023-11-21T05:18:31;8.70;99.90
13049;DHT22;6591;51.446;5.404;2023-11-21T05:20:58;8.70;99.90
13049;DHT22;6591;51.446;5.404;2023-11-21T05:23:25;8.80;99.90
13049;DHT22;6591;51.446;5.404;2023-11-21T05:25:52;10.80;99.90
13049;DHT22;6591;51.446;5.404;2023-11-21T05:28:19;10.70;99.90
13049;DHT22;6591;51.446;5.404;2023-11-21T05:30:46;8.80;99.90
13049;DHT22;6591;51.446;5.404;2023-11-21T05:33:14;8.80;99.90
13049;DHT22;6591;51.446;5.404;2023-11-21T05:35:41;8.90;99.90
13049;DHT22;6591;51.446;5.404;2023-11-21T05:38:08;8.90;99.90
13049;DHT22;6591;51.446;5.404;2023-11-21T05:40:35;10.20;99.90
13049;DHT22;6591;51.446;5.404;2023-11-21T05:43:03;8.90;99.90
13049;DHT22;6591;51.446;5.404;2023-11-21T05:45:32;8.90;99.90
13049;DHT22;6591;51.446;5.404;2023-11-21T05:47:59;8.90;99.90
13049;DHT22;6591;51.446;5.404;2023-11-21T05:50:26;9.00;99.90
13049;DHT22;6591;51.446;5.404;2023-11-21T05:52:53;9.00;99.90
13049;DHT22;6591;51.446;5.404;2023-11-21T05:55:23;9.00;99.90
13049;DHT22;6591;51.446;5.404;2023-11-21T05:57:52;9.00;99.90
13049;DHT22;6591;51.446;5.404;2023-11-21T06:00:20;9.10;99.90
13049;DHT22;6591;51.446;5.404;2023-11-21T06:02:52;9.10;99.90
13049;DHT22;6591;51.446;5.404;2023-11-21T06:05:25;9.10;99.90
13049;DHT22;6591;51.446;5.404;2023-11-21T06:07:54;9.10;99.90
13049;DHT22;6591;51.446;5.404;2023-11-21T06:10:26;9.10;99.90
13049;DHT22;6591;51.446;5.404;2023-11-21T06:12:55;9.10;99.90
13049;DHT22;6591;51.446;5.404;2023-11-21T06:15:22;9.20;99.90
13049;DHT22;6591;51.446;5.404;2023-11-21T06:17:50;10.00;99.90
13049;DHT22;6591;51.446;5.404;2023-11-21T06:20:21;10.40;99.90
13049;DHT22;6591;51.446;5.404;2023-11-21T06:22:50;9.30;99.90
13049;DHT22;6591;51.446;5.404;2023-11-21T06:25:18;9.30;99.90
13049;DHT22;6591;51.446;5.404;2023-11-21T06:27:47;9.30;99.90
13049;DHT22;6591;51.446;5.404;2023-11-21T06:30:15;9.60;99.90
13049;DHT22;6591;51.446;5.404;2023-11-21T06:32:43;9.30;99.90
13049;DHT22;6591;51.446;5.404;2023-11-21T06:35:14;9.30;99.90
13049;DHT22;6591;51.446;5.404;2023-11-21T06:37:43;9.30;99.90
13049;DHT22;6591;51.446;5.404;2023-11-21T06:40:17;9.30;99.90
13049;DHT22;6591;51.446;5.404;2023-11-21T06:42:48;9.50;99.90
13049;DHT22;6591;51.446;5.404;2023-11-21T06:45:17;10.30;99.90
13049;DHT22;6591;51.446;5.404;2023-11-21T06:47:44;9.30;99.90
13049;DHT22;6591;51.446;5.404;2023-11-21T06:50:12;11.30;99.90
13049;DHT22;6591;51.446;5.404;2023-11-21T06:52:40;9.40;99.90
13049;DHT22;6591;51.446;5.404;2023-11-21T06:55:07;9.40;99.90
13049;DHT22;6591;51.446;5.404;2023-11-21T06:57:36;9.50;99.90
13049;DHT22;6591;51.446;5.404;2023-11-21T07:00:05;9.50;99.90
13049;DHT22;6591;51.446;5.404;2023-11-21T07:02:37;9.50;99.90
13049;DHT22;6591;51.446;5.404;2023-11-21T07:05:05;9.60;99.90
13049;DHT22;6591;51.446;5.404;2023-11-21T07:07:33;9.60;99.90
13049;DHT22;6591;51.446;5.404;2023-11-21T07:10:03;9.70;99.90
13049;DHT22;6591;51.446;5.404;2023-11-21T07:12:32;9.60;99.90
13049;DHT22;6591;51.446;5.404;2023-11-21T07:15:00;9.60;99.90
13049;DHT22;6591;51.446;5.404;2023-11-21T07:17:27;9.70;99.90
13049;DHT22;6591;51.446;5.404;2023-11-21T07:19:54;9.70;99.90
13049;DHT22;6591;51.446;5.404;2023-11-21T07:22:22;11.60;99.90
13049;DHT22;6591;51.446;5.404;2023-11-21T07:24:49;9.80;99.90
13049;DHT22;6591;51.446;5.404;2023-11-21T07:27:17;9.20;99.90
13049;DHT22;6591;51.446;5.404;2023-11-21T07:29:45;9.80;99.90
13049;DHT22;6591;51.446;5.404;2023-11-21T07:32:13;9.80;99.90
13049;DHT22;6591;51.446;5.404;2023-11-21T07:34:41;9.80;99.90
13049;DHT22;6591;51.446;5.404;2023-11-21T07:37:08;9.80;99.90
13049;DHT22;6591;51.446;5.404;2023-11-21T07:39:35;9.80;99.90
13049;DHT22;6591;51.446;5.404;2023-11-21T07:42:03;9.90;99.90
13049;DHT22;6591;51.446;5.404;2023-11-21T07:44:31;9.90;99.90
13049;DHT22;6591;51.446;5.404;2023-11-21T07:46:58;10.00;99.90
13049;DHT22;6591;51.446;5.404;2023-11-21T07:49:25;10.10;99.90
13049;DHT22;6591;51.446;5.404;2023-11-21T07:51:53;10.10;99.90
13049;DHT22;6591;51.446;5.404;2023-11-21T07:54:20;10.20;99.90
13049;DHT22;6591;51.446;5.404;2023-11-21T07:56:48;10.30;99.90
13049;DHT22;6591;51.446;5.404;2023-11-21T07:59:15;11.80;99.90
13049;DHT22;6591;51.446;5.404;2023-11-21T08:01:42;11.50;99.90
13049;DHT22;6591;51.446;5.404;2023-11-21T08:04:10;10.30;99.90
13049;DHT22;6591;51.446;5.404;2023-11-21T08:06:37;12.30;99.90
13049;DHT22;6591;51.446;5.404;2023-11-21T08:09:04;10.40;99.90
13049;DHT22;6591;51.446;5.404;2023-11-21T08:11:31;10.40;99.90
13049;DHT22;6591;51.446;5.404;2023-11-21T08:13:59;11.80;99.90
13049;DHT22;6591;51.446;5.404;2023-11-21T08:16:27;11.40;99.90
13049;DHT22;6591;51.446;5.404;2023-11-21T08:18:54;10.70;99.90
13049;DHT22;6591;51.446;5.404;2023-11-21T08:21:21;10.70;99.90
13049;DHT22;6591;51.446;5.404;2023-11-21T08:23:51;10.80;99.90
13049;DHT22;6591;51.446;5.404;2023-11-21T08:26:22;10.80;99.90
13049;DHT22;6591;51.446;5.404;2023-11-21T08:28:49;11.60;99.90
13049;DHT22;6591;51.446;5.404;2023-11-21T08:31:26;11.50;99.90
13049;DHT22;6591;51.446;5.404;2023-11-21T08:33:53;12.40;99.90
13049;DHT22;6591;51.446;5.404;2023-11-21T08:36:24;11.80;99.90
13049;DHT22;6591;51.446;5.404;2023-11-21T08:38:52;10.80;99.90
13049;DHT22;6591;51.446;5.404;2023-11-21T08:41:20;10.90;99.90
13049;DHT22;6591;51.446;5.404;2023-11-21T08:43:50;11.00;99.90
13049;DHT22;6591;51.446;5.404;2023-11-21T08:46:18;11.00;99.90
13049;DHT22;6591;51.446;5.404;2023-11-21T08:48:46;11.10;99.90
13049;DHT22;6591;51.446;5.404;2023-11-21T08:51:14;11.10;99.90
13049;DHT22;6591;51.446;5.404;2023-11-21T08:53:41;11.20;99.90
13049;DHT22;6591;51.446;5.404;2023-11-21T08:56:14;13.10;99.90
13049;DHT22;6591;51.446;5.404;2023-11-21T08:58:42;11.30;99.90
13049;DHT22;6591;51.446;5.404;2023-11-21T09:01:09;11.50;99.90
13049;DHT22;6591;51.446;5.404;2023-11-21T09:03:36;12.80;99.90
13049;DHT22;6591;51.446;5.404;2023-11-21T09:06:05;12.90;99.90
13049;DHT22;6591;51.446;5.404;2023-11-21T09:08:33;11.40;99.90
13049;DHT22;6591;51.446;5.404;2023-11-21T09:11:00;12.60;99.90
13049;DHT22;6591;51.446;5.404;2023-11-21T09:13:27;11.50;99.90
13049;DHT22;6591;51.446;5.404;2023-11-21T09:15:54;12.50;99.90
13049;DHT22;6591;51.446;5.404;2023-11-21T09:18:21;11.70;99.90
13049;DHT22;6591;51.446;5.404;2023-11-21T09:20:49;11.70;99.90
13049;DHT22;6591;51.446;5.404;2023-11-21T09:23:16;12.90;99.90
13049;DHT22;6591;51.446;5.404;2023-11-21T09:25:43;12.90;99.90
13049;DHT22;6591;51.446;5.404;2023-11-21T09:28:13;13.10;99.90
13049;DHT22;6591;51.446;5.404;2023-11-21T09:30:40;13.70;99.90
13049;DHT22;6591;51.446;5.404;2023-11-21T09:33:07;13.60;99.90
13049;DHT22;6591;51.446;5.404;2023-11-21T09:35:38;11.90;99.90
13049;DHT22;6591;51.446;5.404;2023-11-21T09:38:05;12.80;99.90
13049;DHT22;6591;51.446;5.404;2023-11-21T09:40:37;13.40;99.90
13049;DHT22;6591;51.446;5.404;2023-11-21T09:43:16;13.00;99.90
13049;DHT22;6591;51.446;5.404;2023-11-21T09:45:56;12.00;99.90
13049;DHT22;6591;51.446;5.404;2023-11-21T09:48:27;12.10;99.90
13049;DHT22;6591;51.446;5.404;2023-11-21T09:50:58;12.10;99.90
13049;DHT22;6591;51.446;5.404;2023-11-21T09:53:27;12.10;99.90
13049;DHT22;6591;51.446;5.404;2023-11-21T09:55:58;13.70;99.90
13049;DHT22;6591;51.446;5.404;2023-11-21T09:58:29;13.10;99.90
13049;DHT22;6591;51.446;5.404;2023-11-21T10:00:57;13.00;99.90
13049;DHT22;6591;51.446;5.404;2023-11-21T10:03:29;13.30;99.90
13049;DHT22;6591;51.446;5.404;2023-11-21T10:05:58;12.30;99.90
13049;DHT22;6591;51.446;5.404;2023-11-21T10:08:27;12.30;99.90
13049;DHT22;6591;51.446;5.404;2023-11-21T10:11:14;13.40;99.90
13049;DHT22;6591;51.446;5.404;2023-11-21T10:13:45;12.50;99.90
13049;DHT22;6591;51.446;5.404;2023-11-21T10:16:16;12.60;99.90
13049;DHT22;6591;51.446;5.404;2023-11-21T10:18:52;13.90;99.90
13049;DHT22;6591;51.446;5.404;2023-11-21T10:21:39;13.90;99.90
13049;DHT22;6591;51.446;5.404;2023-11-21T10:24:07;12.90;99.90
13049;DHT22;6591;51.446;5.404;2023-11-21T10:26:34;12.90;99.90
13049;DHT22;6591;51.446;5.404;2023-11-21T10:29:16;13.10;99.90
13049;DHT22;6591;51.446;5.404;2023-11-21T10:31:45;13.20;99.90
13049;DHT22;6591;51.446;5.404;2023-11-21T10:34:16;13.30;99.90
13049;DHT22;6591;51.446;5.404;2023-11-21T10:36:45;13.50;99.90
13049;DHT22;6591;51.446;5.404;2023-11-21T10:39:19;13.60;99.90
13049;DHT22;6591;51.446;5.404;2023-11-21T10:41:48;13.70;99.90
13049;DHT22;6591;51.446;5.404;2023-11-21T10:44:16;13.80;99.90
13049;DHT22;6591;51.446;5.404;2023-11-21T10:46:52;14.50;99.90
13049;DHT22;6591;51.446;5.404;2023-11-21T10:49:25;13.90;99.90
13049;DHT22;6591;51.446;5.404;2023-11-21T10:51:56;15.80;99.90
13049;DHT22;6591;51.446;5.404;2023-11-21T10:54:24;15.60;99.90
13049;DHT22;6591;51.446;5.404;2023-11-21T10:57:00;14.10;99.90
13049;DHT22;6591;51.446;5.404;2023-11-21T10:59:31;14.10;99.90
13049;DHT22;6591;51.446;5.404;2023-11-21T11:02:01;14.30;99.90
13049;DHT22;6591;51.446;5.404;2023-11-21T11:04:31;14.10;99.90
13049;DHT22;6591;51.446;5.404;2023-11-21T11:07:03;14.30;99.90
13049;DHT22;6591;51.446;5.404;2023-11-21T11:09:36;14.20;99.90
13049;DHT22;6591;51.446;5.404;2023-11-21T11:12:03;15.60;99.90
13049;DHT22;6591;51.446;5.404;2023-11-21T11:14:32;14.20;99.90
13049;DHT22;6591;51.446;5.404;2023-11-21T11:17:01;14.50;99.90
13049;DHT22;6591;51.446;5.404;2023-11-21T11:19:29;16.00;99.90
13049;DHT22;6591;51.446;5.404;2023-11-21T11:22:16;14.10;99.90
13049;DHT22;6591;51.446;5.404;2023-11-21T11:25:25;14.10;99.90
13049;DHT22;6591;51.446;5.404;2023-11-21T11:28:12;14.00;99.90
13049;DHT22;6591;51.446;5.404;2023-11-21T11:30:50;14.10;99.90
13049;DHT22;6591;51.446;5.404;2023-11-21T11:33:39;14.00;99.90
13049;DHT22;6591;51.446;5.404;2023-11-21T11:36:44;13.90;99.90
13049;DHT22;6591;51.446;5.404;2023-11-21T11:39:34;13.80;99.90
13049;DHT22;6591;51.446;5.404;2023-11-21T11:42:08;13.80;99.90
13049;DHT22;6591;51.446;5.404;2023-11-21T11:50:05;13.60;99.90
13049;DHT22;6591;51.446;5.404;2023-11-21T11:52:50;13.70;99.90
13049;DHT22;6591;51.446;5.404;2023-11-21T11:55:20;13.60;99.90
13049;DHT22;6591;51.446;5.404;2023-11-21T11:57:53;14.30;99.90
13049;DHT22;6591;51.446;5.404;2023-11-21T12:03:03;13.60;99.90
13049;DHT22;6591;51.446;5.404;2023-11-21T12:05:33;13.60;99.90
13049;DHT22;6591;51.446;5.404;2023-11-21T12:08:09;13.50;99.90
13049;DHT22;6591;51.446;5.404;2023-11-21T12:10:39;13.50;99.90
13049;DHT22;6591;51.446;5.404;2023-11-21T12:13:10;13.40;99.90
13049;DHT22;6591;51.446;5.404;2023-11-21T12:15:39;14.30;99.90
13049;DHT22;6591;51.446;5.404;2023-11-21T12:18:08;13.40;99.90
13049;DHT22;6591;51.446;5.404;2023-11-21T12:20:35;13.90;99.90
13049;DHT22;6591;51.446;5.404;2023-11-21T12:23:06;13.30;99.90
13049;DHT22;6591;51.446;5.404;2023-11-21T12:25:36;14.20;99.90
13049;DHT22;6591;51.446;5.404;2023-11-21T12:28:04;13.60;99.90
13049;DHT22;6591;51.446;5.404;2023-11-21T12:30:34;13.20;99.90
13049;DHT22;6591;51.446;5.404;2023-11-21T12:33:05;13.20;99.90
13049;DHT22;6591;51.446;5.404;2023-11-21T12:35:36;13.30;99.90
13049;DHT22;6591;51.446;5.404;2023-11-21T12:38:05;14.80;99.90
13049;DHT22;6591;51.446;5.404;2023-11-21T12:40:32;14.40;99.90
13049;DHT22;6591;51.446;5.404;2023-11-21T12:43:00;13.90;99.90
13049;DHT22;6591;51.446;5.404;2023-11-21T12:45:30;13.20;99.90
13049;DHT22;6591;51.446;5.404;2023-11-21T12:48:02;13.20;99.90
13049;DHT22;6591;51.446;5.404;2023-11-21T12:50:35;13.30;99.90
13049;DHT22;6591;51.446;5.404;2023-11-21T12:53:07;13.30;99.90
13049;DHT22;6591;51.446;5.404;2023-11-21T12:55:37;14.10;99.90
13049;DHT22;6591;51.446;5.404;2023-11-21T12:58:07;14.50;99.90
13049;DHT22;6591;51.446;5.404;2023-11-21T13:00:39;14.90;99.90
13049;DHT22;6591;51.446;5.404;2023-11-21T13:03:11;13.30;99.90
13049;DHT22;6591;51.446;5.404;2023-11-21T13:05:46;13.40;99.90
13049;DHT22;6591;51.446;5.404;2023-11-21T13:08:20;13.40;99.90
13049;DHT22;6591;51.446;5.404;2023-11-21T13:10:52;14.80;99.90
13049;DHT22;6591;51.446;5.404;2023-11-21T13:13:25;13.30;99.90
13049;DHT22;6591;51.446;5.404;2023-11-21T13:16:00;13.30;99.90
13049;DHT22;6591;51.446;5.404;2023-11-21T13:18:28;13.30;99.90
13049;DHT22;6591;51.446;5.404;2023-11-21T13:20:59;14.30;99.90
13049;DHT22;6591;51.446;5.404;2023-11-21T13:23:36;13.20;99.90
13049;DHT22;6591;51.446;5.404;2023-11-21T13:26:05;13.10;99.90
13049;DHT22;6591;51.446;5.404;2023-11-21T13:28:34;13.10;99.90
13049;DHT22;6591;51.446;5.404;2023-11-21T13:31:05;14.00;99.90
13049;DHT22;6591;51.446;5.404;2023-11-21T13:33:39;13.10;99.90
13049;DHT22;6591;51.446;5.404;2023-11-21T13:36:10;13.10;99.90
13049;DHT22;6591;51.446;5.404;2023-11-21T13:38:38;13.10;99.90
13049;DHT22;6591;51.446;5.404;2023-11-21T13:41:10;15.10;99.90
13049;DHT22;6591;51.446;5.404;2023-11-21T13:43:39;14.50;99.90
13049;DHT22;6591;51.446;5.404;2023-11-21T13:46:06;14.90;99.90
13049;DHT22;6591;51.446;5.404;2023-11-21T13:48:44;13.20;99.90
13049;DHT22;6591;51.446;5.404;2023-11-21T13:51:18;14.30;99.90
13049;DHT22;6591;51.446;5.404;2023-11-21T13:53:46;14.50;99.90
13049;DHT22;6591;51.446;5.404;2023-11-21T13:56:16;13.60;99.90
13049;DHT22;6591;51.446;5.404;2023-11-21T13:58:51;13.10;99.90
13049;DHT22;6591;51.446;5.404;2023-11-21T14:01:24;13.10;99.90
13049;DHT22;6591;51.446;5.404;2023-11-21T14:04:12;13.10;99.90
13049;DHT22;6591;51.446;5.404;2023-11-21T14:06:50;12.80;99.90
13049;DHT22;6591;51.446;5.404;2023-11-21T14:09:22;13.70;99.90
13049;DHT22;6591;51.446;5.404;2023-11-21T14:11:57;13.60;99.90
13049;DHT22;6591;51.446;5.404;2023-11-21T14:14:26;12.90;99.90
13049;DHT22;6591;51.446;5.404;2023-11-21T14:16:57;12.90;99.90
13049;DHT22;6591;51.446;5.404;2023-11-21T14:19:26;12.90;99.90
13049;DHT22;6591;51.446;5.404;2023-11-21T14:22:02;12.90;99.90
13049;DHT22;6591;51.446;5.404;2023-11-21T14:24:30;12.90;99.90
13049;DHT22;6591;51.446;5.404;2023-11-21T14:26:57;12.90;99.90
13049;DHT22;6591;51.446;5.404;2023-11-21T14:29:24;13.10;99.90
13049;DHT22;6591;51.446;5.404;2023-11-21T14:31:51;12.80;99.90
13049;DHT22;6591;51.446;5.404;2023-11-21T14:34:23;13.80;99.90
13049;DHT22;6591;51.446;5.404;2023-11-21T14:36:51;12.70;99.90
13049;DHT22;6591;51.446;5.404;2023-11-21T14:39:18;12.70;99.90
13049;DHT22;6591;51.446;5.404;2023-11-21T14:41:56;13.60;99.90
13049;DHT22;6591;51.446;5.404;2023-11-21T14:44:25;12.70;99.90
13049;DHT22;6591;51.446;5.404;2023-11-21T14:46:56;12.80;99.90
13049;DHT22;6591;51.446;5.404;2023-11-21T14:49:25;13.00;99.90
13049;DHT22;6591;51.446;5.404;2023-11-21T14:51:55;14.80;99.90
13049;DHT22;6591;51.446;5.404;2023-11-21T14:54:34;13.90;99.90
13049;DHT22;6591;51.446;5.404;2023-11-21T14:57:11;12.80;99.90
13049;DHT22;6591;51.446;5.404;2023-11-21T14:59:44;12.90;99.90
13049;DHT22;6591;51.446;5.404;2023-11-21T15:02:19;12.90;99.90
13049;DHT22;6591;51.446;5.404;2023-11-21T15:05:10;12.90;99.90
13049;DHT22;6591;51.446;5.404;2023-11-21T15:07:44;12.90;99.90
13049;DHT22;6591;51.446;5.404;2023-11-21T15:10:12;12.90;99.90
13049;DHT22;6591;51.446;5.404;2023-11-21T15:12:43;12.90;99.90
13049;DHT22;6591;51.446;5.404;2023-11-21T15:15:11;12.70;99.90
13049;DHT22;6591;51.446;5.404;2023-11-21T15:17:41;13.20;99.90
13049;DHT22;6591;51.446;5.404;2023-11-21T15:20:11;13.80;99.90
13049;DHT22;6591;51.446;5.404;2023-11-21T15:22:45;12.80;99.90
13049;DHT22;6591;51.446;5.404;2023-11-21T15:25:13;12.80;99.90
13049;DHT22;6591;51.446;5.404;2023-11-21T15:27:40;12.20;99.90
13049;DHT22;6591;51.446;5.404;2023-11-21T15:30:08;12.80;99.90
13049;DHT22;6591;51.446;5.404;2023-11-21T15:32:35;12.70;99.90
13049;DHT22;6591;51.446;5.404;2023-11-21T15:35:03;12.70;99.90
13049;DHT22;6591;51.446;5.404;2023-11-21T15:37:30;12.60;99.90
13049;DHT22;6591;51.446;5.404;2023-11-21T15:39:57;14.60;99.90
13049;DHT22;6591;51.446;5.404;2023-11-21T15:42:24;12.60;99.90
13049;DHT22;6591;51.446;5.404;2023-11-21T15:44:51;14.50;99.90
13049;DHT22;6591;51.446;5.404;2023-11-21T15:47:18;12.40;99.90
13049;DHT22;6591;51.446;5.404;2023-11-21T15:49:45;12.40;99.90
13049;DHT22;6591;51.446;5.404;2023-11-21T15:52:17;12.80;99.90
13049;DHT22;6591;51.446;5.404;2023-11-21T15:54:45;12.30;99.90
13049;DHT22;6591;51.446;5.404;2023-11-21T15:57:13;12.30;99.90
13049;DHT22;6591;51.446;5.404;2023-11-21T15:59:41;12.20;99.90
13049;DHT22;6591;51.446;5.404;2023-11-21T16:02:10;12.20;99.90
13049;DHT22;6591;51.446;5.404;2023-11-21T16:04:39;12.40;99.90
13049;DHT22;6591;51.446;5.404;2023-11-21T16:07:08;12.20;99.90
13049;DHT22;6591;51.446;5.404;2023-11-21T16:09:36;14.50;99.90
13049;DHT22;6591;51.446;5.404;2023-11-21T16:12:05;12.20;99.90
13049;DHT22;6591;51.446;5.404;2023-11-21T16:14:35;12.10;99.90